createdAt,value
2018-01-28T00:01:48.938Z,95862.89
2018-01-28T00:04:17.397Z,95862.11
2018-01-28T00:06:45.803Z,95852.19
2018-01-28T00:09:14.267Z,95853.23
2018-01-28T00:11:42.956Z,95871.43
2018-01-28T00:14:11.344Z,95855.45
2018-01-28T00:16:39.731Z,95856.36
2018-01-28T00:19:08.112Z,95827.17
2018-01-28T00:21:36.483Z,95834.48
2018-01-28T00:24:04.918Z,95838.86
2018-01-28T00:26:33.311Z,95845.98
2018-01-28T00:29:01.730Z,95866.36
2018-01-28T00:31:30.111Z,95875.44
2018-01-28T00:33:58.794Z,95883.66
2018-01-28T00:36:27.190Z,95883.88
2018-01-28T00:38:55.605Z,95878.09
2018-01-28T00:41:23.994Z,95869.64
2018-01-28T00:43:52.380Z,95867.06
2018-01-28T00:46:20.801Z,95852.27
2018-01-28T00:48:49.184Z,95866.52
2018-01-28T00:51:17.763Z,95873.44
2018-01-28T00:53:46.155Z,95872.17
2018-01-28T00:56:14.623Z,95866.22
2018-01-28T00:58:43.028Z,95853.30
2018-01-28T01:01:11.504Z,95863.59
2018-01-28T01:03:39.974Z,95847.03
2018-01-28T01:06:08.363Z,95842.08
2018-01-28T01:08:36.750Z,95850.10
2018-01-28T01:11:05.130Z,95846.91
2018-01-28T01:13:33.555Z,95847.78
2018-01-28T01:16:02.025Z,95848.73
2018-01-28T01:18:30.882Z,95851.69
2018-01-28T01:20:59.271Z,95845.56
2018-01-28T01:23:27.688Z,95860.19
2018-01-28T01:25:56.083Z,95857.42
2018-01-28T01:28:24.495Z,95848.22
2018-01-28T01:30:52.940Z,95848.80
2018-01-28T01:33:21.323Z,95837.23
2018-01-28T01:35:49.696Z,95826.13
2018-01-28T01:38:18.083Z,95826.48
2018-01-28T01:40:46.467Z,95809.55
2018-01-28T01:43:15.167Z,95812.00
2018-01-28T01:45:43.543Z,95812.02
2018-01-28T01:48:11.934Z,95808.13
2018-01-28T01:50:40.385Z,95808.81
2018-01-28T01:53:08.770Z,95802.09
2018-01-28T01:55:37.183Z,95799.64
2018-01-28T01:58:05.558Z,95814.73
2018-01-28T02:00:34.020Z,95811.91
2018-01-28T02:03:02.398Z,95821.59
2018-01-28T02:05:30.833Z,95804.86
2018-01-28T02:07:59.218Z,95815.78
2018-01-28T02:10:27.602Z,95820.95
2018-01-28T02:12:55.988Z,95816.12
2018-01-28T02:15:24.714Z,95816.51
2018-01-28T02:17:53.115Z,95811.59
2018-01-28T02:20:21.530Z,95815.94
2018-01-28T02:22:49.927Z,95812.25
2018-01-28T02:25:18.286Z,95804.00
2018-01-28T02:27:46.724Z,95792.78
2018-01-28T02:30:15.215Z,95775.95
2018-01-28T02:32:43.602Z,95780.95
2018-01-28T02:35:11.991Z,95779.56
2018-01-28T02:37:40.359Z,95804.23
2018-01-28T02:40:08.884Z,95824.76
2018-01-28T02:42:37.253Z,95812.84
2018-01-28T02:45:05.933Z,95800.52
2018-01-28T02:47:34.326Z,95797.19
2018-01-28T02:50:02.690Z,95803.75
2018-01-28T02:52:31.066Z,95796.13
2018-01-28T02:54:59.457Z,95806.58
2018-01-28T02:57:28.185Z,95801.25
2018-01-28T02:59:56.595Z,95817.38
2018-01-28T03:02:24.975Z,95814.31
2018-01-28T03:04:53.350Z,95814.91
2018-01-28T03:07:21.727Z,95808.36
2018-01-28T03:09:50.414Z,95809.89
2018-01-28T03:12:18.798Z,95814.83
2018-01-28T03:14:47.186Z,95819.83
2018-01-28T03:17:15.557Z,95812.10
2018-01-28T03:19:43.939Z,95814.25
2018-01-28T03:22:12.375Z,95809.04
2018-01-28T03:24:40.758Z,95806.21
2018-01-28T03:27:09.191Z,95808.94
2018-01-28T03:29:37.859Z,95817.67
2018-01-28T03:32:06.238Z,95818.33
2018-01-28T03:34:34.622Z,95825.69
2018-01-28T03:37:03.001Z,95836.66
2018-01-28T03:39:31.730Z,95832.93
2018-01-28T03:42:00.120Z,95833.75
2018-01-28T03:44:28.508Z,95835.00
2018-01-28T03:46:56.874Z,95843.76
2018-01-28T03:49:25.259Z,95854.30
2018-01-28T03:51:53.948Z,95854.02
2018-01-28T03:54:22.375Z,95847.68
2018-01-28T03:56:50.695Z,95855.23
2018-01-28T03:59:19.058Z,95844.84
2018-01-28T04:01:47.710Z,95837.27
2018-01-28T04:04:16.058Z,95839.41
2018-01-28T04:06:44.401Z,95849.47
2018-01-28T04:09:12.754Z,95861.73
2018-01-28T04:11:41.098Z,95853.97
2018-01-28T04:14:09.616Z,95851.16
2018-01-28T04:16:37.996Z,95837.19
2018-01-28T04:19:06.543Z,95831.06
2018-01-28T04:21:34.915Z,95829.03
2018-01-28T04:24:03.290Z,95828.27
2018-01-28T04:26:31.963Z,95820.30
2018-01-28T04:29:00.355Z,95816.23
2018-01-28T04:31:28.818Z,95845.19
2018-01-28T04:33:57.203Z,95858.38
2018-01-28T04:36:25.566Z,95831.25
2018-01-28T04:38:54.108Z,95839.52
2018-01-28T04:41:22.473Z,95842.78
2018-01-28T04:43:50.851Z,95834.55
2018-01-28T04:46:19.235Z,95836.36
2018-01-28T04:48:47.626Z,95845.12
2018-01-28T04:51:16.353Z,95841.73
2018-01-28T04:53:44.827Z,95831.17
2018-01-28T04:56:13.218Z,95834.87
2018-01-28T04:58:41.595Z,95840.97
2018-01-28T05:01:10.323Z,95847.47
2018-01-28T05:03:38.706Z,95861.00
2018-01-28T05:06:07.104Z,95861.13
2018-01-28T05:08:35.491Z,95862.20
2018-01-28T05:11:03.873Z,95872.65
2018-01-28T05:13:32.668Z,95876.34
2018-01-28T05:16:01.083Z,95866.90
2018-01-28T05:18:29.454Z,95858.26
2018-01-28T05:20:57.826Z,95856.13
2018-01-28T05:23:26.624Z,95844.11
2018-01-28T05:25:55.002Z,95853.05
2018-01-28T05:28:23.478Z,95856.72
2018-01-28T05:30:51.881Z,95857.69
2018-01-28T05:33:20.262Z,95864.33
2018-01-28T05:35:48.710Z,95872.27
2018-01-28T05:38:17.175Z,95859.06
2018-01-28T05:40:45.576Z,95863.13
2018-01-28T05:43:13.928Z,95876.42
2018-01-28T05:45:42.272Z,95889.21
2018-01-28T05:48:11.028Z,95901.23
2018-01-28T05:50:39.372Z,95902.83
2018-01-28T05:53:07.817Z,95921.13
2018-01-28T05:55:36.203Z,95914.64
2018-01-28T05:58:04.586Z,95919.24
2018-01-28T06:00:33.280Z,95912.41
2018-01-28T06:03:01.660Z,95918.31
2018-01-28T06:05:30.093Z,95921.88
2018-01-28T06:07:58.434Z,95916.99
2018-01-28T06:10:26.804Z,95909.05
2018-01-28T06:12:55.299Z,95892.89
2018-01-28T06:15:23.694Z,95888.53
2018-01-28T06:17:52.430Z,95884.58
2018-01-28T06:20:20.858Z,95878.06
2018-01-28T06:22:49.278Z,95883.77
2018-01-28T06:25:17.739Z,95888.68
2018-01-28T06:27:46.131Z,95893.23
2018-01-28T06:30:14.912Z,95901.19
2018-01-28T06:32:43.296Z,95897.84
2018-01-28T06:35:11.680Z,95906.95
2018-01-28T06:37:40.131Z,95927.42
2018-01-28T06:40:08.515Z,95940.84
2018-01-28T06:42:36.901Z,95950.63
2018-01-28T06:45:05.276Z,95944.81
2018-01-28T06:47:33.667Z,95958.09
2018-01-28T06:50:02.058Z,95966.84
2018-01-28T06:52:30.447Z,95969.69
2018-01-28T06:54:59.202Z,95966.72
2018-01-28T06:57:27.589Z,95976.47
2018-01-28T06:59:55.992Z,95979.91
2018-01-28T07:02:24.403Z,95971.55
2018-01-28T07:04:52.866Z,95967.47
2018-01-28T07:07:21.426Z,95978.55
2018-01-28T07:09:49.829Z,95974.62
2018-01-28T07:12:18.211Z,95988.41
2018-01-28T07:14:46.615Z,95984.97
2018-01-28T07:17:15.326Z,95984.48
2018-01-28T07:19:43.717Z,95980.19
2018-01-28T07:22:12.163Z,95968.97
2018-01-28T07:24:40.555Z,95965.02
2018-01-28T07:27:08.929Z,95962.55
2018-01-28T07:29:37.527Z,95967.20
2018-01-28T07:32:05.905Z,95973.15
2018-01-28T07:34:34.284Z,95972.30
2018-01-28T07:37:02.747Z,95968.83
2018-01-28T07:39:31.460Z,95974.38
2018-01-28T07:41:59.863Z,95983.86
2018-01-28T07:44:28.307Z,95989.05
2018-01-28T07:46:56.694Z,95993.77
2018-01-28T07:49:25.161Z,96008.70
2018-01-28T07:51:53.542Z,96008.89
2018-01-28T07:54:21.939Z,96000.47
2018-01-28T07:56:50.383Z,96000.70
2018-01-28T07:59:18.769Z,96003.91
2018-01-28T08:01:47.202Z,95995.76
2018-01-28T08:04:15.607Z,95992.57
2018-01-28T08:06:43.998Z,96000.23
2018-01-28T08:09:12.385Z,96004.91
2018-01-28T08:14:45.031Z,96020.57
2018-01-28T08:17:13.483Z,96020.41
2018-01-28T08:19:41.860Z,96026.99
2018-01-28T08:22:10.346Z,96034.55
2018-01-28T08:24:38.926Z,96041.55
2018-01-28T08:27:09.188Z,96036.66
2018-01-28T08:29:38.570Z,96037.30
2018-01-28T08:32:06.982Z,96029.67
2018-01-28T08:34:35.419Z,96033.80
2018-01-28T08:37:04.475Z,96034.12
2018-01-28T08:39:33.010Z,96040.00
2018-01-28T08:42:01.383Z,96043.37
2018-01-28T08:44:30.016Z,96036.83
2018-01-28T08:46:58.445Z,96033.41
2018-01-28T08:49:26.832Z,96038.13
2018-01-28T08:51:55.222Z,96039.55
2018-01-28T08:54:23.606Z,96033.63
2018-01-28T08:56:52.003Z,96041.08
2018-01-28T08:59:20.386Z,96047.66
2018-01-28T09:01:48.747Z,96043.00
2018-01-28T09:04:17.114Z,96049.01
2018-01-28T09:06:45.474Z,96044.81
2018-01-28T09:09:13.945Z,96049.12
2018-01-28T09:11:42.348Z,96023.16
2018-01-28T09:14:10.790Z,96029.28
2018-01-28T09:16:39.216Z,96016.87
2018-01-28T09:19:07.614Z,96025.05
2018-01-28T09:21:36.078Z,96037.73
2018-01-28T09:24:04.467Z,96023.23
2018-01-28T09:26:32.856Z,96033.47
2018-01-28T09:29:01.329Z,96027.72
2018-01-28T09:31:29.719Z,96035.82
2018-01-28T09:33:58.122Z,96034.70
2018-01-28T09:36:26.876Z,96046.78
2018-01-28T09:38:55.294Z,96056.92
2018-01-28T09:41:23.737Z,96043.09
2018-01-28T09:43:52.352Z,96051.98
2018-01-28T09:46:20.839Z,96046.22
2018-01-28T09:48:49.304Z,96049.17
2018-01-28T09:51:17.716Z,96071.91
2018-01-28T09:53:46.122Z,96068.37
2018-01-28T09:56:14.563Z,96072.37
2018-01-28T09:58:43.387Z,96073.45
2018-01-28T10:01:11.779Z,96073.59
2018-01-28T10:03:40.194Z,96075.72
2018-01-28T10:06:08.854Z,96079.52
2018-01-28T10:08:37.279Z,96088.20
2018-01-28T10:11:05.684Z,96082.41
2018-01-28T10:13:34.137Z,96092.38
2018-01-28T10:16:02.553Z,96085.05
2018-01-28T10:18:30.962Z,96083.02
2018-01-28T10:20:59.686Z,96088.13
2018-01-28T10:23:28.100Z,96085.02
2018-01-28T10:25:56.540Z,96092.09
2018-01-28T10:28:24.917Z,96093.55
2018-01-28T10:30:53.338Z,96098.97
2018-01-28T10:33:22.151Z,96107.79
2018-01-28T10:35:50.567Z,96111.89
2018-01-28T10:38:19.050Z,96115.66
2018-01-28T10:40:47.779Z,96118.33
2018-01-28T10:43:16.180Z,96114.28
2018-01-28T10:45:44.675Z,96115.08
2018-01-28T10:48:13.131Z,96115.27
2018-01-28T10:50:41.533Z,96109.09
2018-01-28T10:53:09.954Z,96111.38
2018-01-28T10:55:38.555Z,96127.13
2018-01-28T10:58:06.993Z,96127.70
2018-01-28T11:00:35.411Z,96129.56
2018-01-28T11:03:04.005Z,96131.59
2018-01-28T11:05:32.467Z,96124.14
2018-01-28T11:08:00.867Z,96122.69
2018-01-28T11:10:29.629Z,96132.27
2018-01-28T11:12:58.127Z,96128.66
2018-01-28T11:15:26.490Z,96124.69
2018-01-28T11:17:54.859Z,96126.88
2018-01-28T11:20:23.252Z,96132.31
2018-01-28T11:22:51.774Z,96130.06
2018-01-28T11:25:20.436Z,96137.61
2018-01-28T11:27:48.854Z,96128.56
2018-01-28T11:30:17.407Z,96129.65
2018-01-28T11:32:45.847Z,96119.82
2018-01-28T11:35:14.226Z,96117.27
2018-01-28T11:37:42.606Z,96119.61
2018-01-28T11:40:11.144Z,96111.86
2018-01-28T11:42:39.542Z,96106.33
2018-01-28T11:45:08.251Z,96115.33
2018-01-28T11:47:37.406Z,96119.23
2018-01-28T11:50:06.411Z,96130.44
2018-01-28T11:52:35.599Z,96122.76
2018-01-28T11:55:04.209Z,96118.97
2018-01-28T11:57:32.688Z,96123.37
2018-01-28T12:00:01.125Z,96119.94
2018-01-28T12:02:29.607Z,96115.60
2018-01-28T12:04:57.996Z,96112.02
2018-01-28T12:07:26.395Z,96113.77
2018-01-28T12:09:55.108Z,96121.42
2018-01-28T12:12:23.546Z,96113.45
2018-01-28T12:14:52.036Z,96115.88
2018-01-28T12:17:20.882Z,96118.73
2018-01-28T12:19:49.275Z,96114.95
2018-01-28T12:22:17.663Z,96115.22
2018-01-28T12:24:46.379Z,96120.88
2018-01-28T12:27:14.828Z,96114.33
2018-01-28T12:29:43.219Z,96118.66
2018-01-28T12:32:11.649Z,96108.48
2018-01-28T12:34:40.154Z,96115.95
2018-01-28T12:37:08.540Z,96119.91
2018-01-28T12:39:37.311Z,96109.86
2018-01-28T12:42:05.793Z,96104.28
2018-01-28T12:44:34.219Z,96105.84
2018-01-28T12:47:02.814Z,96100.81
2018-01-28T12:49:32.150Z,96099.00
2018-01-28T12:52:00.538Z,96092.94
2018-01-28T12:54:29.248Z,96108.08
2018-01-28T12:56:57.648Z,96097.41
2018-01-28T12:59:26.010Z,96084.80
2018-01-28T13:01:54.415Z,96085.31
2018-01-28T13:04:22.814Z,96090.11
2018-01-28T13:06:51.209Z,96096.40
2018-01-28T13:09:20.044Z,96083.87
2018-01-28T13:11:48.594Z,96083.03
2018-01-28T13:14:16.996Z,96062.50
2018-01-28T13:16:45.893Z,96062.04
2018-01-28T13:19:14.376Z,96065.70
2018-01-28T13:21:42.762Z,96057.97
2018-01-28T13:24:11.248Z,96064.75
2018-01-28T13:26:39.740Z,96058.89
2018-01-28T13:29:08.146Z,96059.38
2018-01-28T13:31:36.960Z,96055.59
2018-01-28T13:34:05.335Z,96056.80
2018-01-28T13:36:33.742Z,96051.70
2018-01-28T13:39:02.472Z,96050.81
2018-01-28T13:41:30.863Z,96060.33
2018-01-28T13:43:59.311Z,96050.17
2018-01-28T13:46:28.042Z,96037.23
2018-01-28T13:48:56.441Z,96053.52
2018-01-28T13:51:24.831Z,96042.70
2018-01-28T13:53:53.541Z,96046.61
2018-01-28T13:56:21.940Z,96045.63
2018-01-28T13:58:50.343Z,96049.50
2018-01-28T14:01:19.217Z,96047.52
2018-01-28T14:03:47.771Z,96052.05
2018-01-28T14:06:16.548Z,96047.03
2018-01-28T14:08:45.517Z,96046.77
2018-01-28T14:11:14.147Z,96057.48
2018-01-28T14:13:42.761Z,96059.92
2018-01-28T14:16:30.103Z,96056.38
2018-01-28T14:18:58.579Z,96058.05
2018-01-28T14:21:27.247Z,96074.98
2018-01-28T14:23:55.621Z,96074.06
2018-01-28T14:26:24.001Z,96077.91
2018-01-28T14:28:52.381Z,96086.87
2018-01-28T14:31:20.758Z,96087.92
2018-01-28T14:33:49.487Z,96075.47
2018-01-28T14:36:17.859Z,96092.00
2018-01-28T14:38:46.239Z,96096.53
2018-01-28T14:41:14.616Z,96093.54
2018-01-28T14:43:43.012Z,96104.24
2018-01-28T14:46:11.813Z,96097.20
2018-01-28T14:48:40.187Z,96097.58
2018-01-28T14:51:08.554Z,96101.05
2018-01-28T14:53:36.923Z,96108.25
2018-01-28T14:56:05.313Z,96108.75
2018-01-28T14:58:33.746Z,96108.06
2018-01-28T15:01:02.119Z,96103.71
2018-01-28T15:03:30.489Z,96099.52
2018-01-28T15:05:58.871Z,96098.53
2018-01-28T15:08:27.382Z,96085.55
2018-01-28T15:10:56.565Z,96094.08
2018-01-28T15:13:25.022Z,96098.50
2018-01-28T15:15:56.808Z,96098.69
2018-01-28T15:18:27.456Z,96107.47
2018-01-28T15:20:56.470Z,96102.25
2018-01-28T15:23:25.335Z,96107.14
2018-01-28T15:25:53.817Z,96109.74
2018-01-28T15:28:22.432Z,96107.27
2018-01-28T15:30:51.054Z,96115.07
2018-01-28T15:33:20.826Z,96113.56
2018-01-28T15:35:50.112Z,96101.34
2018-01-28T15:38:18.748Z,96100.23
2018-01-28T15:40:47.265Z,96104.75
2018-01-28T15:43:15.706Z,96104.15
2018-01-28T15:45:44.331Z,96106.56
2018-01-28T15:48:13.137Z,96109.49
2018-01-28T15:50:41.679Z,96109.56
2018-01-28T15:53:10.171Z,96105.31
2018-01-28T15:55:38.644Z,96113.67
2018-01-28T15:58:07.060Z,96105.08
2018-01-28T16:00:35.667Z,96111.67
2018-01-28T16:03:04.155Z,96123.06
2018-01-28T16:05:32.655Z,96128.41
2018-01-28T16:08:03.153Z,96117.03
2018-01-28T16:10:31.531Z,96112.36
2018-01-28T16:13:00.335Z,96118.16
2018-01-28T16:15:28.785Z,96110.14
2018-01-28T16:17:57.250Z,96111.54
2018-01-28T16:20:25.641Z,96108.65
2018-01-28T16:22:54.226Z,96106.80
2018-01-28T16:25:23.107Z,96100.02
2018-01-28T16:27:51.623Z,96119.08
2018-01-28T16:30:20.034Z,96109.86
2018-01-28T16:32:48.434Z,96104.36
2018-01-28T16:35:16.872Z,96101.09
2018-01-28T16:37:45.575Z,96098.49
2018-01-28T16:40:15.115Z,96105.94
2018-01-28T16:42:43.748Z,96114.24
2018-01-28T16:45:12.115Z,96108.05
2018-01-28T16:47:40.616Z,96112.89
2018-01-28T16:50:15.506Z,96112.09
2018-01-28T16:52:43.947Z,96121.27
2018-01-28T16:55:12.349Z,96110.23
2018-01-28T16:57:40.724Z,96109.00
2018-01-28T17:00:09.139Z,96118.46
2018-01-28T17:02:37.741Z,96124.66
2018-01-28T17:05:06.108Z,96124.84
2018-01-28T17:07:34.494Z,96122.88
2018-01-28T17:10:02.867Z,96134.84
2018-01-28T17:12:31.239Z,96135.42
2018-01-28T17:14:59.951Z,96128.02
2018-01-28T17:17:28.345Z,96134.29
2018-01-28T17:19:56.760Z,96134.41
2018-01-28T17:22:25.167Z,96143.38
2018-01-28T17:24:53.624Z,96138.98
2018-01-28T17:27:22.039Z,96141.30
2018-01-28T17:29:50.419Z,96143.10
2018-01-28T17:32:18.907Z,96136.06
2018-01-28T17:34:47.355Z,96137.95
2018-01-28T17:37:15.742Z,96135.30
2018-01-28T17:39:44.575Z,96130.09
2018-01-28T17:42:12.956Z,96124.52
2018-01-28T17:44:41.329Z,96122.84
2018-01-28T17:47:09.732Z,96131.23
2018-01-28T17:49:38.143Z,96131.25
2018-01-28T17:52:07.043Z,96128.20
2018-01-28T17:54:35.494Z,96122.58
2018-01-28T17:57:03.911Z,96127.45
2018-01-28T17:59:32.330Z,96125.80
2018-01-28T18:02:00.733Z,96125.88
2018-01-28T18:04:29.667Z,96135.48
2018-01-28T18:06:58.066Z,96128.30
2018-01-28T18:09:26.469Z,96132.59
2018-01-28T18:11:54.908Z,96135.70
2018-01-28T18:14:23.292Z,96127.52
2018-01-28T18:16:51.715Z,96141.89
2018-01-28T18:19:20.134Z,96138.18
2018-01-28T18:21:48.586Z,96138.20
2018-01-28T18:24:17.024Z,96143.19
2018-01-28T18:26:45.410Z,96131.17
2018-01-28T18:29:13.802Z,96145.90
2018-01-28T18:31:42.286Z,96144.48
2018-01-28T18:34:10.861Z,96142.98
2018-01-28T18:36:39.234Z,96143.28
2018-01-28T18:39:07.682Z,96136.06
2018-01-28T18:41:36.071Z,96138.16
2018-01-28T18:44:04.546Z,96134.08
2018-01-28T18:46:32.988Z,96124.06
2018-01-28T18:49:01.457Z,96134.49
2018-01-28T18:51:31.106Z,96132.38
2018-01-28T18:53:59.469Z,96137.50
2018-01-28T18:56:27.844Z,96131.96
2018-01-28T18:58:56.305Z,96137.63
2018-01-28T19:01:24.670Z,96140.23
2018-01-28T19:03:53.068Z,96137.02
2018-01-28T19:06:21.443Z,96143.59
2018-01-28T19:08:49.826Z,96131.63
2018-01-28T19:11:18.372Z,96135.86
2018-01-28T19:13:46.751Z,96135.50
2018-01-28T19:16:15.139Z,96127.91
2018-01-28T19:18:43.497Z,96128.21
2018-01-28T19:21:11.896Z,96135.50
2018-01-28T19:23:40.372Z,96134.08
2018-01-28T19:26:08.821Z,96135.39
2018-01-28T19:28:37.203Z,96137.88
2018-01-28T19:31:05.572Z,96138.08
2018-01-28T19:33:33.962Z,96138.39
2018-01-28T19:36:02.663Z,96131.11
2018-01-28T19:38:31.059Z,96134.72
2018-01-28T19:40:59.466Z,96130.71
2018-01-28T19:43:27.826Z,96137.30
2018-01-28T19:45:56.220Z,96121.45
2018-01-28T19:48:24.639Z,96114.56
2018-01-28T19:50:53.103Z,96112.67
2018-01-28T19:53:21.464Z,96104.20
2018-01-28T19:55:49.822Z,96105.94
2018-01-28T19:58:18.246Z,96095.40
2018-01-28T20:00:47.033Z,96092.91
2018-01-28T20:03:15.436Z,96099.42
2018-01-28T20:05:46.091Z,96109.30
2018-01-28T20:08:14.599Z,96119.66
2018-01-28T20:10:42.981Z,96124.33
2018-01-28T20:13:11.831Z,96125.83
2018-01-28T20:15:40.197Z,96119.55
2018-01-28T20:18:08.586Z,96121.37
2018-01-28T20:20:36.999Z,96121.03
2018-01-28T20:23:05.369Z,96109.05
2018-01-28T20:25:34.162Z,96125.07
2018-01-28T20:28:02.539Z,96118.88
2018-01-28T20:30:32.127Z,96112.16
2018-01-28T20:35:39.929Z,96097.47
2018-01-28T20:38:08.694Z,96101.35
2018-01-28T20:40:37.185Z,96094.57
2018-01-28T20:43:05.593Z,96099.61
2018-01-28T20:45:34.002Z,96101.13
2018-01-28T20:48:02.359Z,96083.62
2018-01-28T20:50:31.227Z,96095.00
2018-01-28T20:53:00.512Z,96096.19
2018-01-28T20:55:28.925Z,96087.64
2018-01-28T20:57:57.353Z,96100.30
2018-01-28T21:00:25.749Z,96104.56
2018-01-28T21:02:54.460Z,96102.01
2018-01-28T21:09:39.300Z,96098.43
2018-01-28T21:12:07.722Z,96109.75
2018-01-28T21:14:36.114Z,96110.28
2018-01-28T21:17:04.589Z,96110.91
2018-01-28T21:19:33.034Z,96108.57
2018-01-28T21:22:01.622Z,96114.27
2018-01-28T21:24:30.035Z,96109.60
2018-01-28T21:26:58.450Z,96104.70
2018-01-28T21:29:26.845Z,96112.56
2018-01-28T21:31:55.230Z,96099.55
2018-01-28T21:34:24.040Z,96099.86
2018-01-28T21:36:52.444Z,96106.55
2018-01-28T21:39:20.904Z,96117.17
2018-01-28T21:41:49.299Z,96103.38
2018-01-28T21:44:17.732Z,96107.04
2018-01-28T21:46:46.404Z,96111.44
2018-01-28T21:49:14.812Z,96112.67
2018-01-28T21:51:43.241Z,96099.30
2018-01-28T21:54:11.631Z,96104.46
2018-01-28T21:56:40.040Z,96099.33
2018-01-28T21:59:08.586Z,96101.21
2018-01-28T22:01:36.991Z,96099.57
2018-01-28T22:04:05.415Z,96106.20
2018-01-28T22:06:33.823Z,96107.13
2018-01-28T22:09:02.257Z,96106.43
2018-01-28T22:11:30.989Z,96105.08
2018-01-28T22:13:59.379Z,96109.81
2018-01-28T22:16:27.792Z,96102.08
2018-01-28T22:18:56.211Z,96111.90
2018-01-28T22:21:24.659Z,96111.36
2018-01-28T22:23:53.078Z,96109.84
2018-01-28T22:26:21.520Z,96110.53
2018-01-28T22:28:50.331Z,96107.56
2018-01-28T22:31:18.836Z,96101.84
2018-01-28T22:33:47.284Z,96085.97
2018-01-28T22:36:15.671Z,96100.12
2018-01-28T22:38:44.084Z,96086.42
2018-01-28T22:41:12.475Z,96086.13
2018-01-28T22:43:40.874Z,96082.98
2018-01-28T22:46:09.610Z,96078.97
2018-01-28T22:48:38.059Z,96094.80
2018-01-28T22:51:06.470Z,96090.22
2018-01-28T22:53:34.865Z,96084.19
2018-01-28T22:56:03.278Z,96081.06
2018-01-28T22:58:31.763Z,96077.97
2018-01-28T23:01:00.151Z,96085.81
2018-01-28T23:03:28.626Z,96087.03
2018-01-28T23:05:57.025Z,96092.38
2018-01-28T23:08:25.415Z,96092.91
2018-01-28T23:10:54.129Z,96086.38
2018-01-28T23:13:22.535Z,96089.07
2018-01-28T23:15:50.968Z,96089.38
2018-01-28T23:18:19.352Z,96090.63
2018-01-28T23:20:48.005Z,96093.92
2018-01-28T23:23:16.422Z,96095.92
2018-01-28T23:25:44.803Z,96096.67
2018-01-28T23:28:13.200Z,96081.16
2018-01-28T23:30:41.649Z,96087.28
2018-01-28T23:33:10.059Z,96086.91
2018-01-28T23:35:38.453Z,96084.28
2018-01-28T23:38:06.853Z,96086.45
2018-01-28T23:43:10.188Z,96083.69
2018-01-28T23:45:38.575Z,96090.44
2018-01-28T23:48:07.004Z,96086.16
2018-01-28T23:50:35.387Z,96083.84
2018-01-28T23:53:03.802Z,96084.92
2018-01-28T23:55:32.581Z,96087.39
2018-01-28T23:58:01.065Z,96083.30
